This is the latest recevied weather packets stored in our database for station/object SQ6RR-11. If no packets are shown the sender has not sent any weather packets the latest 10 day(s).
| Time | Temp. | Humidity | Pressure | Rain* | Wind** | Luminosity | Snow |
|---|---|---|---|---|---|---|---|
| 1777450833 | 5.56° C | 37% | 1028.7 hPa | 0 mm | - | - | - |
| 1777450563 | 5.56° C | 38% | 1028.7 hPa | 0 mm | - | - | - |
| 1777450278 | 5.56° C | 37% | 1028.8 hPa | 0 mm | - | - | - |
| 1777450012 | 5.56° C | 37% | 1028.7 hPa | 0 mm | - | - | - |
| 1777449762 | 5.56° C | 38% | 1028.8 hPa | 0 mm | - | - | - |
| 1777449513 | 5.56° C | 38% | 1028.8 hPa | 0 mm | - | - | - |
| 1777449234 | 5° C | 40% | 1028.7 hPa | 0 mm | - | - | - |
| 1777448963 | 5° C | 39% | 1028.7 hPa | 0 mm | - | - | - |
| 1777448702 | 5° C | 40% | 1028.8 hPa | 0 mm | - | - | - |
| 1777448418 | 4.44° C | 39% | 1028.8 hPa | 0 mm | - | - | - |
| 1777448158 | 5° C | 41% | 1028.6 hPa | 0 mm | - | - | - |
| 1777447882 | 5° C | 40% | 1028.7 hPa | 0 mm | - | - | - |
| 1777447623 | 5° C | 42% | 1028.6 hPa | 0 mm | - | - | - |
| 1777447363 | 4.44° C | 40% | 1028.5 hPa | 0 mm | - | - | - |
| 1777447086 | 5° C | 41% | 1028.4 hPa | 0 mm | - | - | - |
| 1777446827 | 5° C | 44% | 1028.3 hPa | 0 mm | - | - | - |
| 1777446547 | 5° C | 44% | 1028.3 hPa | 0 mm | - | - | - |
| 1777446278 | 5° C | 46% | 1028.2 hPa | 0 mm | - | - | - |
| 1777446015 | 3.89° C | 44% | 1028.3 hPa | 0 mm | - | - | - |
| 1777445743 | 3.89° C | 45% | 1028.3 hPa | 0 mm | - | - | - |
| 1777445463 | 3.89° C | 45% | 1028.3 hPa | 0 mm | - | - | - |
| 1777445177 | 4.44° C | 47% | 1028.2 hPa | 0 mm | - | - | - |
| 1777444920 | 3.89° C | 47% | 1028.1 hPa | 0 mm | - | - | - |
| 1777444665 | 3.89° C | 48% | 1028.1 hPa | 0 mm | - | - | - |
| 1777444388 | 3.89° C | 48% | 1028 hPa | 0 mm | - | - | - |
* Rain latest hour (hover to see other rain measurements)
** Current wind speed in m/s (hover to see current wind gust speed)